Time;durP1;ratioP1;P1;durP2;ratioP2;P2;SDS_P1;SDS_P2;PMS_P1;PMS_P2;Temp;Humidity;BMP_temperature;BMP_pressure;BME280_temperature;BME280_humidity;BME280_pressure;Samples;Min_cycle;Max_cycle;Signal;HPM_P1;HPM_P2
2021/03/10 00:01:44;;;;;;;54.15;23.15;;;;;;;0.95;45.25;100575.22;5004010;28;20050;-72
2021/03/10 00:04:10;;;;;;;49.53;23.27;;;;;;;0.95;45.28;100576.94;4996749;28;20050;-70
2021/03/10 00:06:36;;;;;;;51.90;22.20;;;;;;;0.95;45.33;100569.19;5001068;28;20457;-71
2021/03/10 00:09:03;;;;;;;50.97;22.95;;;;;;;1.00;45.43;100577.81;5000350;28;20054;-71
2021/03/10 00:11:29;;;;;;;46.03;20.15;;;;;;;1.07;45.32;100585.63;5005225;28;20097;-70
2021/03/10 00:13:56;;;;;;;47.38;21.27;;;;;;;1.14;45.17;100583.94;5002164;28;20116;-71
2021/03/10 00:16:22;;;;;;;43.58;22.00;;;;;;;1.21;44.92;100585.69;5003139;28;20434;-71
2021/03/10 00:18:49;;;;;;;47.33;19.98;;;;;;;1.24;45.06;100588.28;5005459;28;20050;-71
2021/03/10 00:21:15;;;;;;;46.15;20.27;;;;;;;1.24;45.07;100583.13;5004562;28;20057;-70
2021/03/10 00:23:41;;;;;;;58.60;25.08;;;;;;;1.21;45.30;100577.94;5002448;28;20077;-70
2021/03/10 00:26:07;;;;;;;55.75;23.98;;;;;;;1.15;45.34;100577.91;5004391;28;20077;-71
2021/03/10 00:28:33;;;;;;;59.85;28.38;;;;;;;1.11;45.65;100578.75;5007487;28;20065;-70
2021/03/10 00:31:01;;;;;;;53.47;24.60;;;;;;;1.12;45.54;100577.91;5006654;28;20054;-72
2021/03/10 00:33:27;;;;;;;53.53;22.58;;;;;;;1.10;46.00;100571.88;5009090;28;20054;-71
2021/03/10 00:35:53;;;;;;;54.78;24.73;;;;;;;1.02;45.87;100571.81;5003801;28;20513;-72
2021/03/10 00:38:19;;;;;;;54.75;25.75;;;;;;;0.93;46.18;100570.91;5006125;28;20042;-72
2021/03/10 00:40:45;;;;;;;59.35;24.60;;;;;;;0.84;46.30;100567.44;5008407;28;20054;-71
2021/03/10 00:43:11;;;;;;;61.15;26.08;;;;;;;0.77;46.47;100573.38;5005612;28;20532;-71
2021/03/10 00:45:38;;;;;;;49.97;24.63;;;;;;;0.74;46.42;100560.47;5000731;28;20052;-71
2021/03/10 00:48:06;;;;;;;50.13;24.60;;;;;;;0.77;46.54;100568.22;5002519;28;20072;-70
2021/03/10 00:50:32;;;;;;;50.45;22.27;;;;;;;0.82;46.34;100563.94;5002790;28;20410;-71
2021/03/10 00:52:58;;;;;;;48.75;21.48;;;;;;;0.87;46.30;100570.03;5002642;28;20057;-70
2021/03/10 00:55:25;;;;;;;45.15;21.00;;;;;;;0.89;46.16;100570.91;4998984;28;20082;-70
2021/03/10 00:57:51;;;;;;;38.85;20.75;;;;;;;0.93;46.32;100568.34;5007985;28;20054;-71
2021/03/10 01:00:19;;;;;;;46.40;21.30;;;;;;;0.94;46.22;100564.91;5005693;28;20068;-71
2021/03/10 01:02:45;;;;;;;49.33;22.50;;;;;;;0.91;46.41;100561.44;5004629;28;20045;-70
2021/03/10 01:05:13;;;;;;;46.75;23.63;;;;;;;0.91;46.33;100558.00;5009258;28;20421;-70
2021/03/10 01:07:39;;;;;;;47.47;21.35;;;;;;;0.98;46.26;100564.91;5002740;28;20046;-70
2021/03/10 01:10:08;;;;;;;48.92;19.92;;;;;;;1.00;46.22;100562.34;5004700;28;20046;-70
2021/03/10 01:12:36;;;;;;;44.55;20.98;;;;;;;1.02;46.30;100558.91;5005351;28;20054;-70
2021/03/10 01:15:05;;;;;;;52.35;21.50;;;;;;;1.08;46.13;100563.25;5002589;28;20056;-70
2021/03/10 01:17:31;;;;;;;40.78;20.08;;;;;;;1.14;46.28;100558.13;4997697;28;20054;-71
2021/03/10 01:19:57;;;;;;;47.13;22.35;;;;;;;1.25;45.96;100552.97;5007318;28;20049;-72
2021/03/10 01:22:25;;;;;;;43.55;20.00;;;;;;;1.28;46.04;100548.72;4994005;28;20054;-72
2021/03/10 01:24:51;;;;;;;43.97;20.55;;;;;;;1.32;45.85;100550.44;4994995;28;20487;-72
2021/03/10 01:27:17;;;;;;;42.35;19.77;;;;;;;1.31;45.91;100545.28;5007129;28;20096;-72
2021/03/10 01:29:44;;;;;;;43.45;21.48;;;;;;;1.32;45.92;100542.72;5008878;28;20133;-72
2021/03/10 01:32:10;;;;;;;42.42;19.15;;;;;;;1.35;45.96;100544.44;4998665;28;20553;-73
2021/03/10 01:34:36;;;;;;;36.67;19.42;;;;;;;1.33;45.92;100538.41;5009860;28;20086;-73
2021/03/10 01:37:02;;;;;;;37.45;18.67;;;;;;;1.28;45.86;100546.13;5001197;28;20062;-73
2021/03/10 01:39:29;;;;;;;39.78;20.10;;;;;;;1.23;46.10;100540.06;5013442;28;20053;-72
2021/03/10 01:41:57;;;;;;;41.67;18.73;;;;;;;1.17;46.30;100534.88;5007065;28;20445;-72
2021/03/10 01:44:24;;;;;;;38.42;18.27;;;;;;;1.15;46.32;100536.59;5001866;28;20054;-72
2021/03/10 01:46:50;;;;;;;44.05;18.33;;;;;;;1.06;46.34;100546.91;5008654;28;20076;-72
2021/03/10 01:49:17;;;;;;;44.30;17.92;;;;;;;1.05;46.31;100534.84;4999256;28;20469;-72
2021/03/10 01:51:45;;;;;;;35.38;17.85;;;;;;;1.02;46.30;100539.97;5008448;28;20050;-73
2021/03/10 01:54:11;;;;;;;42.85;18.23;;;;;;;1.02;46.74;100538.25;5020511;28;20061;-71
2021/03/10 01:56:40;;;;;;;37.38;17.13;;;;;;;1.01;46.54;100538.25;5007258;28;20093;-72
2021/03/10 01:59:06;;;;;;;38.65;18.40;;;;;;;1.02;46.65;100532.22;5005154;28;20050;-72
2021/03/10 02:01:32;;;;;;;44.20;20.42;;;;;;;1.07;46.50;100528.84;5007685;28;20057;-71
2021/03/10 02:04:02;;;;;;;41.28;19.55;;;;;;;1.08;46.37;100529.69;5008191;28;20049;-71
2021/03/10 02:06:50;;;;;;;43.80;19.50;;;;;;;1.14;46.58;100529.72;5010630;28;20046;-69
2021/03/10 02:09:22;;;;;;;37.45;17.67;;;;;;;1.15;46.58;100523.69;5004783;28;20101;-72
2021/03/10 02:11:56;;;;;;;36.38;17.48;;;;;;;1.07;46.72;100526.25;5010010;28;20053;-73
2021/03/10 02:14:28;;;;;;;42.95;20.42;;;;;;;1.00;46.86;100527.06;5011185;28;20045;-72
2021/03/10 02:16:57;;;;;;;40.25;18.65;;;;;;;1.01;47.03;100518.47;5004408;28;20054;-73
2021/03/10 02:19:55;;;;;;;50.42;20.67;;;;;;;1.02;47.11;100529.66;5002881;28;20050;-72
2021/03/10 02:22:38;;;;;;;40.33;19.25;;;;;;;1.01;47.13;100530.50;5002709;28;20325;-72
2021/03/10 02:25:13;;;;;;;44.80;19.65;;;;;;;0.97;47.08;100523.59;5007702;28;20047;-73
2021/03/10 02:27:46;;;;;;;37.92;18.77;;;;;;;0.95;47.29;100522.72;5004702;28;20108;-72
2021/03/10 02:30:17;;;;;;;41.42;19.35;;;;;;;0.94;47.04;100528.75;5008380;28;20049;-72
2021/03/10 02:32:47;;;;;;;40.70;19.80;;;;;;;0.98;46.95;100523.59;5004351;28;20100;-71
2021/03/10 02:35:14;;;;;;;35.22;17.70;;;;;;;1.02;47.11;100534.81;5008615;28;20046;-72
2021/03/10 02:37:45;;;;;;;43.30;18.73;;;;;;;1.08;47.08;100524.53;5006739;28;20054;-72
2021/03/10 02:40:14;;;;;;;42.70;21.55;;;;;;;1.19;47.12;100528.88;5002666;28;20104;-70
2021/03/10 02:42:41;;;;;;;48.25;21.02;;;;;;;1.28;46.93;100533.22;5000162;28;20050;-71
2021/03/10 02:45:12;;;;;;;39.50;21.20;;;;;;;1.28;47.13;100525.47;5008421;28;20050;-72
2021/03/10 02:47:39;;;;;;;48.58;22.30;;;;;;;1.36;47.07;100528.06;5009409;28;20050;-71
2021/03/10 02:50:08;;;;;;;53.55;22.23;;;;;;;1.40;46.92;100525.50;5001693;28;20049;-72
2021/03/10 02:52:35;;;;;;;46.65;21.00;;;;;;;1.41;46.94;100522.06;5002368;28;20480;-70
2021/03/10 02:55:02;;;;;;;46.17;21.67;;;;;;;1.33;47.00;100516.00;5009237;28;20061;-71
2021/03/10 02:57:29;;;;;;;45.75;21.30;;;;;;;1.20;47.26;100519.41;5009178;28;20053;-71
2021/03/10 02:59:56;;;;;;;48.28;20.00;;;;;;;1.17;47.44;100516.81;5011916;28;20406;-71
2021/03/10 03:02:23;;;;;;;39.03;18.55;;;;;;;1.21;47.37;100518.53;5013454;28;20049;-72
2021/03/10 03:04:50;;;;;;;33.85;18.42;;;;;;;1.33;47.08;100520.31;5013368;28;20317;-71
2021/03/10 03:07:16;;;;;;;42.88;19.63;;;;;;;1.40;46.97;100522.06;5012761;28;20073;-72
2021/03/10 03:09:45;;;;;;;34.55;18.27;;;;;;;1.42;46.49;100525.50;5012167;28;20054;-71
2021/03/10 03:12:13;;;;;;;37.88;17.58;;;;;;;1.42;46.85;100528.09;5013746;28;20050;-70
2021/03/10 03:14:42;;;;;;;39.10;17.80;;;;;;;1.41;46.81;100519.47;5013916;28;20050;-71
2021/03/10 03:17:08;;;;;;;44.10;18.35;;;;;;;1.38;46.94;100527.22;5013705;28;20387;-71
2021/03/10 03:19:36;;;;;;;35.63;18.52;;;;;;;1.41;46.93;100526.38;5014060;28;20054;-70
2021/03/10 03:22:05;;;;;;;43.05;18.05;;;;;;;1.48;46.90;100526.41;5013559;28;20442;-71
2021/03/10 03:24:31;;;;;;;39.95;18.42;;;;;;;1.59;46.67;100522.97;5010936;28;20491;-71
2021/03/10 03:26:58;;;;;;;40.17;20.88;;;;;;;1.65;46.65;100522.97;5000384;28;20414;-70
2021/03/10 03:29:26;;;;;;;53.45;23.10;;;;;;;1.65;46.75;100525.56;5003340;28;20406;-70
2021/03/10 03:31:53;;;;;;;53.67;22.33;;;;;;;1.66;46.83;100527.28;5011540;28;20132;-71
2021/03/10 03:34:20;;;;;;;44.47;23.55;;;;;;;1.67;46.83;100521.28;5006950;28;20360;-71
2021/03/10 03:36:47;;;;;;;45.88;21.05;;;;;;;1.65;46.90;100522.97;5013364;28;20438;-71
2021/03/10 03:39:15;;;;;;;44.45;21.10;;;;;;;1.67;46.84;100518.72;5013634;28;20058;-71
2021/03/10 03:41:42;;;;;;;49.53;22.33;;;;;;;1.60;47.10;100519.53;5013378;28;20140;-73
2021/03/10 03:44:08;;;;;;;46.00;20.40;;;;;;;1.55;47.07;100511.78;5013446;28;20057;-73
2021/03/10 03:46:35;;;;;;;41.90;20.85;;;;;;;1.55;47.15;100521.25;5013298;28;20053;-72
2021/03/10 03:49:03;;;;;;;40.85;20.25;;;;;;;1.56;47.45;100525.56;5013535;28;20054;-71
2021/03/10 03:51:30;;;;;;;41.85;20.40;;;;;;;1.58;47.40;100522.13;5012584;28;20482;-71
2021/03/10 03:54:00;;;;;;;51.25;20.33;;;;;;;1.59;47.71;100520.38;5012979;28;20096;-70
2021/03/10 03:56:27;;;;;;;40.72;20.40;;;;;;;1.57;47.38;100522.09;5011293;28;20045;-71
2021/03/10 03:58:53;;;;;;;40.78;18.65;;;;;;;1.55;47.47;100521.25;5011821;28;20050;-72
2021/03/10 04:01:20;;;;;;;38.47;18.02;;;;;;;1.48;47.52;100523.81;5012889;28;20522;-72
2021/03/10 04:03:47;;;;;;;43.08;18.38;;;;;;;1.44;47.47;100518.63;5013289;28;20050;-72
2021/03/10 04:06:14;;;;;;;40.53;18.15;;;;;;;1.40;47.71;100520.34;5007954;28;20116;-72
2021/03/10 04:08:41;;;;;;;41.83;18.33;;;;;;;1.37;47.69;100522.06;4999799;28;20059;-71
2021/03/10 04:11:09;;;;;;;39.78;18.02;;;;;;;1.32;47.63;100528.94;4997200;28;20138;-72
2021/03/10 04:13:35;;;;;;;39.85;18.13;;;;;;;1.27;47.87;100526.34;5009648;28;20054;-71
2021/03/10 04:16:01;;;;;;;44.25;18.25;;;;;;;1.19;47.86;100522.84;4998531;28;20054;-71
2021/03/10 04:18:28;;;;;;;35.28;16.88;;;;;;;1.19;47.87;100533.16;5005900;28;20383;-70
2021/03/10 04:20:55;;;;;;;41.78;19.25;;;;;;;1.19;47.81;100533.16;5012546;28;20548;-70
2021/03/10 04:23:21;;;;;;;41.83;19.08;;;;;;;1.20;47.94;100529.72;5013161;28;20104;-70
2021/03/10 04:25:47;;;;;;;40.97;18.88;;;;;;;1.16;48.01;100528.00;5011903;28;20057;-70
2021/03/10 04:28:14;;;;;;;41.92;19.08;;;;;;;1.05;48.24;100530.53;5012620;28;20088;-70
2021/03/10 04:30:40;;;;;;;52.95;21.38;;;;;;;0.95;48.53;100531.34;5012751;28;20046;-70
2021/03/10 04:33:06;;;;;;;42.70;19.15;;;;;;;0.85;48.66;100527.88;5011829;28;20118;-69
2021/03/10 04:35:33;;;;;;;49.45;19.65;;;;;;;0.76;48.98;100527.78;5011461;28;20050;-71
2021/03/10 04:37:59;;;;;;;41.80;20.35;;;;;;;0.66;49.04;100530.31;5012476;28;20406;-70
2021/03/10 04:40:25;;;;;;;40.72;19.30;;;;;;;0.58;49.35;100527.69;5012474;28;20054;-70
2021/03/10 04:42:52;;;;;;;51.05;21.08;;;;;;;0.53;49.60;100525.06;5012713;28;20057;-69
2021/03/10 04:45:19;;;;;;;34.95;18.13;;;;;;;0.42;49.55;100525.88;5012667;28;20060;-70
2021/03/10 04:47:46;;;;;;;44.83;18.55;;;;;;;0.34;49.83;100527.50;5012428;28;20053;-69
2021/03/10 04:50:14;;;;;;;52.10;20.65;;;;;;;0.23;50.16;100524.88;5011550;28;20069;-70
2021/03/10 04:52:41;;;;;;;37.85;19.45;;;;;;;0.11;50.39;100524.75;4992860;28;20042;-70
2021/03/10 04:55:08;;;;;;;43.05;19.83;;;;;;;-0.01;50.68;100528.06;4991856;28;20050;-70
2021/03/10 04:57:35;;;;;;;56.80;22.45;;;;;;;-0.09;50.78;100527.16;4991192;28;20058;-70
2021/03/10 05:00:01;;;;;;;53.40;20.95;;;;;;;-0.15;51.03;100525.38;4994688;28;20054;-72
2021/03/10 05:02:28;;;;;;;47.95;21.85;;;;;;;-0.22;51.25;100520.16;4999629;28;20077;-72
2021/03/10 05:04:54;;;;;;;45.78;21.75;;;;;;;-0.26;51.29;100528.69;4997674;28;20186;-71
2021/03/10 05:07:21;;;;;;;49.63;21.73;;;;;;;-0.29;51.28;100533.81;4992794;28;20054;-71
2021/03/10 05:09:48;;;;;;;51.20;23.02;;;;;;;-0.35;51.41;100532.91;4992850;28;20502;-71
2021/03/10 05:12:14;;;;;;;55.35;23.02;;;;;;;-0.40;51.53;100526.88;4993976;28;20112;-70
2021/03/10 05:14:40;;;;;;;52.53;21.42;;;;;;;-0.41;51.79;100529.44;4996709;28;20113;-70
2021/03/10 05:17:07;;;;;;;40.15;20.10;;;;;;;-0.45;51.63;100528.50;5005060;28;20097;-70
2021/03/10 05:19:34;;;;;;;51.03;22.50;;;;;;;-0.50;51.78;100530.19;5012370;28;20049;-71
2021/03/10 05:22:00;;;;;;;52.65;23.38;;;;;;;-0.50;51.83;100525.03;5007538;28;20054;-71
2021/03/10 05:24:27;;;;;;;60.75;24.70;;;;;;;-0.52;51.94;100521.56;5014750;28;20058;-71
2021/03/10 05:26:53;;;;;;;59.47;25.27;;;;;;;-0.51;51.94;100533.59;5015157;28;20050;-71
2021/03/10 05:29:19;;;;;;;65.90;26.73;;;;;;;-0.42;51.72;100533.69;5015867;28;20120;-70
2021/03/10 05:31:46;;;;;;;66.07;27.15;;;;;;;-0.23;51.58;100539.03;5015845;28;20100;-70
2021/03/10 05:34:12;;;;;;;69.53;26.65;;;;;;;-0.05;51.46;100536.63;5015591;28;20054;-71
2021/03/10 05:36:39;;;;;;;61.42;27.60;;;;;;;0.11;51.11;100541.09;5015365;28;20549;-72
2021/03/10 05:39:06;;;;;;;63.08;29.40;;;;;;;0.23;50.92;100545.50;5015616;28;20050;-72
2021/03/10 05:41:32;;;;;;;74.50;30.33;;;;;;;0.25;50.87;100544.66;5015247;28;20046;-73
2021/03/10 05:43:59;;;;;;;75.55;32.17;;;;;;;0.28;50.90;100551.53;5014672;28;20057;-71
2021/03/10 05:46:25;;;;;;;63.08;28.38;;;;;;;0.32;50.89;100550.72;5015511;28;20050;-72
2021/03/10 05:48:52;;;;;;;70.55;30.88;;;;;;;0.39;50.87;100551.63;5015682;28;20057;-71
2021/03/10 05:51:18;;;;;;;63.58;27.83;;;;;;;0.52;50.50;100554.31;5014032;28;20046;-72
2021/03/10 05:53:46;;;;;;;65.82;26.20;;;;;;;0.71;50.27;100549.28;5012396;28;20042;-70
2021/03/10 05:56:14;;;;;;;50.97;24.13;;;;;;;0.98;49.75;100553.72;5010798;28;20050;-71
2021/03/10 05:58:40;;;;;;;52.30;23.02;;;;;;;1.43;49.20;100556.50;5013661;28;20132;-71
2021/03/10 06:01:06;;;;;;;44.75;23.52;;;;;;;1.97;48.14;100557.53;5013474;28;20046;-70
2021/03/10 06:03:33;;;;;;;45.53;23.85;;;;;;;2.43;47.08;100557.53;5013664;28;20053;-71
2021/03/10 06:06:01;;;;;;;48.92;23.88;;;;;;;2.95;46.60;100552.31;5011787;28;20050;-71
2021/03/10 06:08:28;;;;;;;45.33;23.55;;;;;;;3.24;46.04;100549.59;5004578;28;20060;-71
2021/03/10 06:10:56;;;;;;;45.47;22.10;;;;;;;3.35;46.05;100559.06;5004478;28;20599;-72
2021/03/10 06:13:24;;;;;;;50.40;22.55;;;;;;;3.52;45.67;100558.13;4996643;28;20206;-71
2021/03/10 06:15:52;;;;;;;45.10;22.02;;;;;;;3.83;45.26;100569.22;4992354;28;20043;-70
2021/03/10 06:18:27;;;;;;;52.42;24.48;;;;;;;4.41;44.24;100564.47;4983106;28;20054;-70
2021/03/10 06:21:07;;;;;;;51.08;24.33;;;;;;;5.14;43.02;100574.16;4978140;28;20546;-70
2021/03/10 06:23:34;;;;;;;52.60;22.35;;;;;;;5.51;42.34;100573.72;4981394;28;20439;-70
2021/03/10 06:26:02;;;;;;;48.40;22.75;;;;;;;5.53;42.27;100568.50;4985144;28;20105;-69
2021/03/10 06:28:38;;;;;;;48.05;22.00;;;;;;;5.40;42.51;100567.78;4992124;28;20112;-70
2021/03/10 06:31:16;;;;;;;44.90;21.92;;;;;;;5.05;42.81;100574.25;4993483;28;20057;-70
2021/03/10 06:33:42;;;;;;;44.45;22.35;;;;;;;4.98;42.77;100575.19;4993607;28;20399;-70
2021/03/10 06:36:09;;;;;;;47.13;22.50;;;;;;;4.77;43.10;100581.44;4992338;28;20061;-69
2021/03/10 06:38:35;;;;;;;40.30;19.60;;;;;;;5.17;42.26;100592.28;4982367;28;20054;-69
2021/03/10 06:41:02;;;;;;;43.97;21.25;;;;;;;6.18;40.66;100580.63;4978950;28;20054;-71
2021/03/10 06:43:37;;;;;;;39.67;20.23;;;;;;;7.18;39.12;100583.25;4981767;28;20047;-70
2021/03/10 06:46:14;;;;;;;42.25;20.95;;;;;;;7.84;38.10;100581.91;4973767;28;20058;-69
2021/03/10 06:48:53;;;;;;;46.38;22.70;;;;;;;8.06;37.92;100588.34;4980351;28;20050;-70
2021/03/10 06:51:19;;;;;;;39.72;20.30;;;;;;;8.08;37.82;100585.72;4980173;28;20141;-70
2021/03/10 06:53:45;;;;;;;44.45;20.13;;;;;;;8.35;37.20;100586.88;4978435;28;20479;-70
2021/03/10 06:56:20;;;;;;;41.53;20.75;;;;;;;8.89;36.47;100589.00;4978853;28;20407;-73
2021/03/10 06:59:00;;;;;;;45.33;20.08;;;;;;;9.54;35.37;100594.19;4982988;28;20039;-73
2021/03/10 07:01:35;;;;;;;37.78;20.38;;;;;;;10.31;34.15;100598.88;4982574;28;20058;-72
2021/03/10 07:04:02;;;;;;;46.25;20.70;;;;;;;11.38;32.56;100597.88;4982381;28;20082;-72
2021/03/10 07:06:29;;;;;;;38.22;20.00;;;;;;;11.65;31.83;100594.22;4981321;28;20061;-72
2021/03/10 07:08:57;;;;;;;36.17;20.90;;;;;;;11.90;31.54;100600.31;5008073;28;20049;-72
2021/03/10 07:11:24;;;;;;;39.25;20.60;;;;;;;12.71;30.36;100594.47;5011650;28;20042;-69
2021/03/10 07:13:51;;;;;;;36.78;21.63;;;;;;;13.52;29.39;100600.63;5011002;28;20054;-69
2021/03/10 07:16:17;;;;;;;39.78;20.83;;;;;;;14.20;28.40;100601.88;5008232;28;20405;-72
2021/03/10 07:18:46;;;;;;;38.90;19.70;;;;;;;14.94;27.43;100605.25;5002202;28;20066;-71
2021/03/10 07:21:16;;;;;;;39.70;20.67;;;;;;;15.57;26.45;100601.06;5004878;28;20049;-71
2021/03/10 07:23:47;;;;;;;42.95;21.65;;;;;;;16.03;25.77;100603.03;5010767;28;20092;-71
2021/03/10 07:26:17;;;;;;;38.40;20.00;;;;;;;16.13;25.52;100606.88;4991447;28;20470;-72
2021/03/10 07:28:50;;;;;;;38.23;21.03;;;;;;;16.60;24.91;100609.47;4995505;28;20140;-72
2021/03/10 07:31:20;;;;;;;41.47;22.90;;;;;;;17.29;24.15;100611.63;5010995;28;20054;-71
2021/03/10 07:33:54;;;;;;;46.28;25.83;;;;;;;17.79;23.52;100607.69;5008729;28;20046;-73
2021/03/10 07:36:32;;;;;;;45.35;22.45;;;;;;;17.75;23.29;100613.28;5010787;28;20049;-72
2021/03/10 07:38:58;;;;;;;36.92;21.27;;;;;;;17.99;22.74;100609.06;5011160;28;20530;-73
2021/03/10 07:41:33;;;;;;;42.00;21.67;;;;;;;18.46;22.15;100608.66;5010938;28;20611;-73
2021/03/10 07:44:00;;;;;;;35.70;18.90;;;;;;;18.88;21.54;100620.94;5010999;28;20046;-73
2021/03/10 07:46:27;;;;;;;45.90;25.73;;;;;;;18.62;21.45;100615.63;5009286;28;20058;-72
2021/03/10 07:48:55;;;;;;;39.80;22.13;;;;;;;17.70;22.51;100618.88;4999945;28;20575;-72
2021/03/10 07:51:26;;;;;;;44.38;23.75;;;;;;;17.97;21.82;100617.13;5006396;28;20045;-71
2021/03/10 07:53:53;;;;;;;35.50;18.48;;;;;;;17.21;22.56;100624.44;5003223;28;20105;-72
2021/03/10 07:56:24;;;;;;;35.97;20.45;;;;;;;17.19;22.16;100613.09;5003759;28;20058;-70
2021/03/10 07:58:50;;;;;;;32.47;17.63;;;;;;;17.96;21.20;100625.19;5002693;28;20077;-70
2021/03/10 08:01:18;;;;;;;31.60;17.98;;;;;;;17.24;21.63;100616.31;5005243;28;20185;-69
2021/03/10 08:03:44;;;;;;;35.97;17.45;;;;;;;15.62;23.27;100618.53;5001692;28;20053;-70
2021/03/10 08:06:14;;;;;;;28.40;17.50;;;;;;;14.10;24.61;100622.53;5006116;28;20311;-69
2021/03/10 08:08:41;;;;;;;33.83;17.98;;;;;;;13.37;25.15;100618.00;5004905;28;20052;-70
2021/03/10 08:11:10;;;;;;;35.40;18.60;;;;;;;12.95;25.32;100615.41;5010581;28;20057;-70
2021/03/10 08:13:36;;;;;;;34.63;18.00;;;;;;;13.91;24.39;100613.78;5006650;28;20052;-69
2021/03/10 08:16:07;;;;;;;37.85;17.10;;;;;;;13.86;24.23;100618.41;5009456;28;20056;-69
2021/03/10 08:18:36;;;;;;;29.42;18.23;;;;;;;13.28;24.74;100621.00;5005969;28;20062;-73
2021/03/10 08:21:09;;;;;;;31.98;17.23;;;;;;;12.57;25.30;100619.59;5005038;28;20047;-75
2021/03/10 08:23:36;;;;;;;31.35;17.05;;;;;;;12.38;25.51;100622.97;5007141;28;20060;-74
2021/03/10 08:26:04;;;;;;;45.65;21.25;;;;;;;12.90;24.77;100626.09;5005975;28;20037;-73
2021/03/10 08:28:35;;;;;;;38.63;23.00;;;;;;;13.21;24.60;100622.19;4993038;28;20495;-75
2021/03/10 08:31:02;;;;;;;;;;;;;;;13.65;24.66;100610.56;5009956;28;20046;-73
2021/03/10 08:33:30;;;;;;;38.03;21.08;;;;;;;13.85;24.36;100617.56;5004011;28;20004;-76
2021/03/10 08:35:57;;;;;;;30.27;16.67;;;;;;;13.43;24.40;100623.81;5004983;28;20054;-75
2021/03/10 08:38:29;;;;;;;28.63;16.27;;;;;;;13.20;24.52;100621.34;5009055;28;20082;-74
2021/03/10 08:41:03;;;;;;;29.02;15.93;;;;;;;12.61;25.08;100618.56;5003774;28;20050;-74
2021/03/10 08:43:30;;;;;;;30.33;15.95;;;;;;;12.60;25.16;100611.59;5004306;28;20511;-75
2021/03/10 08:45:57;;;;;;;33.30;16.83;;;;;;;13.20;24.39;100612.59;5010291;28;20057;-74
2021/03/10 08:48:25;;;;;;;30.85;15.27;;;;;;;13.19;24.51;100617.00;5005165;28;20382;-76
2021/03/10 08:50:51;;;;;;;30.35;18.08;;;;;;;12.87;24.85;100610.44;5005726;28;20045;-74
2021/03/10 08:53:24;;;;;;;29.77;16.05;;;;;;;13.90;23.80;100599.75;5005409;28;20047;-75
2021/03/10 08:55:51;;;;;;;28.13;16.33;;;;;;;13.78;23.82;100612.66;5008812;28;20449;-77
2021/03/10 08:58:19;;;;;;;25.40;14.63;;;;;;;13.73;23.86;100616.31;5006637;28;20042;-78
2021/03/10 09:00:46;;;;;;;33.65;16.48;;;;;;;14.79;23.11;100614.81;5006573;28;20150;-75
2021/03/10 09:03:17;;;;;;;23.33;14.00;;;;;;;15.53;22.11;100612.72;5001418;28;20046;-73
2021/03/10 09:05:44;;;;;;;27.33;15.23;;;;;;;14.97;22.49;100606.88;5006930;28;20046;-73
2021/03/10 09:08:13;;;;;;;27.90;15.68;;;;;;;14.50;23.10;100620.66;5003030;28;20050;-75
2021/03/10 09:10:46;;;;;;;25.55;15.68;;;;;;;14.73;22.70;100615.13;5003618;28;20096;-73
2021/03/10 09:13:13;;;;;;;33.90;16.65;;;;;;;15.16;22.31;100608.50;5006883;28;20042;-73
2021/03/10 09:15:40;;;;;;;31.17;15.40;;;;;;;14.92;22.61;100607.97;5007246;28;20096;-73
2021/03/10 09:18:08;;;;;;;29.83;15.85;;;;;;;15.12;22.30;100616.69;5004955;28;20046;-74
2021/03/10 09:20:36;;;;;;;23.85;12.75;;;;;;;14.74;22.25;100614.19;5008410;28;20520;-71
2021/03/10 09:23:04;;;;;;;25.20;13.32;;;;;;;14.58;22.28;100614.09;5004937;28;20042;-70
2021/03/10 09:25:31;;;;;;;25.73;13.43;;;;;;;15.28;21.52;100614.09;5006616;28;20486;-71
2021/03/10 09:28:05;;;;;;;18.70;11.93;;;;;;;15.37;21.19;100618.91;5003855;28;20066;-69
2021/03/10 09:30:33;;;;;;;14.98;10.07;;;;;;;15.03;21.26;100615.38;5007141;28;20460;-69
2021/03/10 09:32:59;;;;;;;20.55;11.70;;;;;;;14.23;22.08;100614.91;5005454;28;20501;-68
2021/03/10 09:35:29;;;;;;;17.05;9.82;;;;;;;13.96;22.00;100623.19;5006907;28;20050;-69
2021/03/10 09:37:57;;;;;;;24.50;11.67;;;;;;;13.88;22.35;100619.19;5004378;28;20054;-68
2021/03/10 09:40:33;;;;;;;18.48;11.38;;;;;;;14.40;21.73;100614.13;5007093;28;20790;-74
2021/03/10 09:43:01;;;;;;;19.10;10.70;;;;;;;14.32;21.59;100622.38;5008542;28;20112;-73
2021/03/10 09:45:30;;;;;;;16.38;10.23;;;;;;;13.97;21.82;100618.78;5003656;28;20089;-70
2021/03/10 09:47:56;;;;;;;17.35;10.63;;;;;;;13.87;22.01;100630.66;5001381;28;20054;-71
2021/03/10 09:50:33;;;;;;;21.38;11.23;;;;;;;13.66;22.06;100625.44;5009429;28;20054;-72
2021/03/10 09:53:00;;;;;;;17.17;10.65;;;;;;;13.39;22.49;100627.53;5006096;28;20042;-71
2021/03/10 09:55:28;;;;;;;15.35;10.20;;;;;;;13.25;22.80;100626.41;5001190;28;20050;-70
2021/03/10 09:58:17;;;;;;;14.25;10.00;;;;;;;12.99;23.00;100636.25;5001380;28;20555;-72
2021/03/10 10:00:45;;;;;;;16.70;10.80;;;;;;;13.06;23.18;100632.41;5008640;28;20043;-71
2021/03/10 10:03:12;;;;;;;16.73;10.30;;;;;;;12.91;23.24;100630.47;5005675;28;20074;-71
2021/03/10 10:05:40;;;;;;;16.75;9.98;;;;;;;12.75;23.20;100642.53;5008406;28;20076;-74
2021/03/10 10:08:10;;;;;;;18.13;9.88;;;;;;;12.62;23.30;100638.69;5009540;28;20054;-76
2021/03/10 10:10:38;;;;;;;12.60;7.45;;;;;;;12.61;22.93;100634.34;5007596;28;20117;-72
2021/03/10 10:13:05;;;;;;;13.20;8.32;;;;;;;12.78;22.71;100635.38;5002907;28;20541;-71
2021/03/10 10:15:33;;;;;;;15.10;9.10;;;;;;;12.63;22.81;100643.03;5013323;28;20485;-72
2021/03/10 10:18:02;;;;;;;16.48;9.35;;;;;;;12.31;23.11;100633.81;5010872;28;20042;-73
2021/03/10 10:20:30;;;;;;;14.32;8.65;;;;;;;11.71;23.80;100627.31;5009732;28;20049;-73
2021/03/10 10:22:57;;;;;;;15.57;9.45;;;;;;;11.53;24.34;100620.94;5001924;28;20084;-75
2021/03/10 10:25:23;;;;;;;18.08;9.60;;;;;;;11.41;24.44;100626.63;5003207;28;20096;-72
2021/03/10 10:27:51;;;;;;;15.88;10.02;;;;;;;10.85;25.04;100626.84;5006472;28;20370;-71
2021/03/10 10:30:19;;;;;;;17.45;9.30;;;;;;;10.56;25.31;100630.41;5007280;28;20049;-72
2021/03/10 10:32:48;;;;;;;15.75;9.02;;;;;;;10.40;24.95;100627.41;5006160;28;20077;-72
2021/03/10 10:35:16;;;;;;;17.63;10.70;;;;;;;10.32;25.23;100634.66;5001240;28;20058;-73
2021/03/10 10:37:45;;;;;;;17.08;9.77;;;;;;;10.20;25.43;100637.59;5001963;28;20050;-72
2021/03/10 10:40:15;;;;;;;12.57;8.15;;;;;;;9.97;25.65;100639.16;5004113;28;20046;-71
2021/03/10 10:42:42;;;;;;;211.80;28.27;;;;;;;9.91;25.33;100636.72;5008945;28;20057;-72
2021/03/10 10:45:09;;;;;;;18.40;11.02;;;;;;;9.75;25.83;100635.47;5006101;28;20054;-71
2021/03/10 10:47:36;;;;;;;18.80;9.45;;;;;;;9.64;26.14;100635.78;5006591;28;20050;-72
2021/03/10 10:50:04;;;;;;;14.20;9.38;;;;;;;9.44;26.13;100641.56;5009225;28;20514;-71
2021/03/10 10:52:32;;;;;;;45.25;32.95;;;;;;;9.35;26.45;100635.72;5002619;28;20056;-72
2021/03/10 10:54:58;;;;;;;15.38;10.07;;;;;;;9.21;26.76;100630.00;5004652;28;20060;-71
2021/03/10 10:57:24;;;;;;;17.38;10.48;;;;;;;9.20;26.70;100641.38;4998723;28;20053;-71
2021/03/10 10:59:51;;;;;;;15.20;9.60;;;;;;;9.21;26.79;100638.72;5011646;28;20050;-70
2021/03/10 11:02:17;;;;;;;14.70;8.43;;;;;;;9.22;26.71;100634.34;5000589;28;20050;-71
2021/03/10 11:04:43;;;;;;;12.98;7.40;;;;;;;9.14;26.90;100631.91;5007113;28;20060;-71
2021/03/10 11:07:09;;;;;;;10.25;6.93;;;;;;;9.03;26.54;100629.59;5013632;28;20050;-70
2021/03/10 11:09:39;;;;;;;9.82;7.10;;;;;;;8.74;26.79;100627.69;5007155;28;20050;-78
2021/03/10 11:12:07;;;;;;;14.80;7.70;;;;;;;8.69;26.99;100626.94;5006586;28;20394;-70
2021/03/10 11:14:33;;;;;;;14.13;7.97;;;;;;;8.46;26.86;100622.28;5009045;28;20053;-71
2021/03/10 11:17:00;;;;;;;12.43;8.35;;;;;;;8.28;27.21;100617.44;5000824;28;20069;-70
2021/03/10 11:19:27;;;;;;;15.02;9.75;;;;;;;8.18;27.28;100616.81;5003196;28;20054;-72